Time;durP1;ratioP1;P1;durP2;ratioP2;P2;SDS_P1;SDS_P2;PMS_P1;PMS_P2;Temp;Humidity;BMP_temperature;BMP_pressure;BME280_temperature;BME280_humidity;BME280_pressure;Samples;Min_cycle;Max_cycle;Signal;HPM_P1;HPM_P2
2022/08/15 00:00:35;;;;;;;11.02;9.05;;;21.30;1.00;;;;;;5053021;28;20041;-27
2022/08/15 00:03:03;;;;;;;11.00;9.55;;;21.30;1.00;;;;;;5054312;28;20059;-27
2022/08/15 00:05:32;;;;;;;17.17;9.65;;;21.30;1.00;;;;;;5053321;28;20045;-28
2022/08/15 00:07:58;;;;;;;11.65;9.55;;;21.30;1.00;;;;;;5053772;28;20483;-28
2022/08/15 00:10:25;;;;;;;11.02;9.57;;;21.20;1.00;;;;;;5054065;28;20465;-27
2022/08/15 00:12:51;;;;;;;14.18;9.52;;;21.20;1.00;;;;;;5054585;28;20075;-28
2022/08/15 00:15:19;;;;;;;11.05;8.57;;;21.20;1.00;;;;;;5053202;28;20052;-27
2022/08/15 00:17:47;;;;;;;11.30;10.02;;;21.10;1.00;;;;;;5054909;28;20045;-27
2022/08/15 00:20:13;;;;;;;13.13;9.73;;;21.00;1.00;;;;;;5053001;28;20445;-27
2022/08/15 00:22:49;;;;;;;12.50;10.35;;;21.00;1.00;;;;;;5050517;28;20052;-26
2022/08/15 00:25:16;;;;;;;11.55;9.65;;;20.90;1.00;;;;;;5052863;28;20503;-28
2022/08/15 00:27:42;;;;;;;14.07;11.30;;;20.80;56.50;;;;;;5054153;28;20512;-27
2022/08/15 00:30:09;;;;;;;11.85;10.02;;;20.80;96.10;;;;;;5052995;28;20044;-27
2022/08/15 00:32:36;;;;;;;12.20;10.98;;;20.80;99.90;;;;;;5053699;28;20127;-27
2022/08/15 00:35:35;;;;;;;12.93;10.55;;;20.70;99.90;;;;;;5052869;28;20041;-27
2022/08/15 00:37:55;;;;;;;11.63;10.30;;;20.60;99.90;;;;;;5046926;28;20041;-27
2022/08/15 00:40:25;;;;;;;11.38;10.23;;;20.60;99.90;;;;;;5052958;28;20506;-27
2022/08/15 00:42:51;;;;;;;12.18;9.45;;;20.60;99.90;;;;;;5051901;28;20074;-27
2022/08/15 00:45:22;;;;;;;11.23;9.68;;;20.50;99.90;;;;;;5052408;28;20380;-27
2022/08/15 00:48:41;;;;;;;10.90;9.80;;;20.50;99.90;;;;;;5054774;28;20398;-27
2022/08/15 00:50:37;;;;;;;14.60;10.95;;;20.50;99.90;;;;;;5052653;28;20049;-27
2022/08/15 00:53:08;;;;;;;11.95;10.48;;;20.40;99.90;;;;;;5053728;28;20099;-28
2022/08/15 00:55:38;;;;;;;11.90;10.65;;;20.40;99.90;;;;;;5052598;28;20045;-27
2022/08/15 00:58:04;;;;;;;12.80;10.57;;;20.30;99.90;;;;;;5051851;28;20053;-27
2022/08/15 01:00:41;;;;;;;13.57;9.68;;;20.20;99.90;;;;;;5052591;28;20394;-27
2022/08/15 01:03:18;;;;;;;13.60;10.40;;;20.20;99.90;;;;;;5051133;28;20048;-27
2022/08/15 01:05:46;;;;;;;14.48;11.13;;;20.10;99.90;;;;;;5053174;28;20140;-27
2022/08/15 01:08:14;;;;;;;12.20;10.98;;;20.10;99.90;;;;;;5053049;28;20406;-27
2022/08/15 01:10:40;;;;;;;13.38;11.27;;;20.10;99.90;;;;;;5052197;28;20049;-27
2022/08/15 01:13:06;;;;;;;12.10;10.75;;;20.00;99.90;;;;;;5054013;28;20058;-27
2022/08/15 01:15:32;;;;;;;14.32;11.05;;;20.00;99.90;;;;;;5051863;28;20047;-27
2022/08/15 01:17:58;;;;;;;14.52;11.70;;;19.90;99.90;;;;;;5052032;28;20122;-27
2022/08/15 01:20:29;;;;;;;12.60;11.25;;;19.80;99.90;;;;;;5052744;28;20065;-27
2022/08/15 01:23:19;;;;;;;14.05;11.40;;;19.80;99.90;;;;;;5053485;28;20053;-27
2022/08/15 01:25:53;;;;;;;19.33;12.63;;;19.80;99.90;;;;;;5050880;28;20052;-27
2022/08/15 01:28:26;;;;;;;12.70;11.20;;;19.80;99.90;;;;;;5052261;28;20059;-30
2022/08/15 01:31:06;;;;;;;17.67;11.40;;;19.90;99.90;;;;;;5038085;28;20115;-27
2022/08/15 01:33:45;;;;;;;13.82;11.30;;;20.00;99.90;;;;;;5052964;28;20460;-27
2022/08/15 01:36:11;;;;;;;13.38;12.05;;;20.00;99.90;;;;;;5052998;28;20040;-27
2022/08/15 01:38:48;;;;;;;13.55;11.98;;;20.00;99.90;;;;;;5051626;28;20086;-27
2022/08/15 01:41:26;;;;;;;13.98;12.05;;;20.00;99.90;;;;;;5053067;28;20086;-28
2022/08/15 01:44:08;;;;;;;13.05;11.38;;;20.00;99.90;;;;;;5052254;28;20107;-28
2022/08/15 01:46:42;;;;;;;13.63;11.68;;;19.90;99.90;;;;;;5055995;28;20051;-27
2022/08/15 01:49:18;;;;;;;12.63;11.27;;;19.90;99.90;;;;;;5042209;28;20128;-27
2022/08/15 01:51:44;;;;;;;16.95;11.85;;;19.80;99.90;;;;;;5052384;28;20048;-27
2022/08/15 01:54:12;;;;;;;12.30;10.70;;;19.80;99.90;;;;;;5051699;28;20040;-27
2022/08/15 01:56:41;;;;;;;14.65;13.05;;;19.70;99.90;;;;;;5049890;28;20560;-27
2022/08/15 01:59:20;;;;;;;13.27;11.48;;;19.70;99.90;;;;;;5051245;28;20033;-27
2022/08/15 02:01:51;;;;;;;12.98;11.23;;;19.70;99.90;;;;;;5053478;28;20041;-27
2022/08/15 02:04:19;;;;;;;12.55;11.35;;;19.70;99.90;;;;;;5050660;28;20052;-27
2022/08/15 02:06:46;;;;;;;15.52;12.88;;;19.80;99.90;;;;;;5049823;28;20049;-27
2022/08/15 02:09:16;;;;;;;14.25;12.57;;;19.80;1.00;;;;;;5068618;28;20468;-27
2022/08/15 02:11:44;;;;;;;14.25;12.73;;;19.70;99.90;;;;;;5055766;28;20048;-27
2022/08/15 02:14:11;;;;;;;17.80;13.35;;;19.50;99.90;;;;;;5057377;28;20118;-27
2022/08/15 02:16:39;;;;;;;14.18;12.30;;;19.50;1.00;;;;;;5057324;28;20056;-27
2022/08/15 02:19:08;;;;;;;12.75;11.45;;;19.50;1.00;;;;;;5055744;28;20057;-28
2022/08/15 02:21:35;;;;;;;13.18;11.68;;;19.60;1.00;;;;;;5054065;28;20045;-27
2022/08/15 02:24:02;;;;;;;15.00;12.18;;;19.70;1.00;;;;;;5056093;28;20049;-27
2022/08/15 02:26:28;;;;;;;14.35;10.90;;;19.80;1.00;;;;;;5057023;28;20064;-27
2022/08/15 02:28:54;;;;;;;13.02;11.75;;;19.80;1.00;;;;;;5057129;28;20041;-27
2022/08/15 02:31:24;;;;;;;13.85;12.13;;;20.00;99.90;;;;;;5055435;28;20053;-27
2022/08/15 02:33:56;;;;;;;16.20;13.43;;;20.10;99.90;;;;;;5056541;28;20068;-27
2022/08/15 02:36:23;;;;;;;16.98;14.32;;;20.00;99.90;;;;;;5056418;28;20079;-28
2022/08/15 02:38:50;;;;;;;14.02;12.52;;;19.70;99.90;;;;;;5055721;28;20548;-27
2022/08/15 02:41:23;;;;;;;17.38;13.60;;;19.50;99.90;;;;;;5055367;28;20043;-27
2022/08/15 02:43:50;;;;;;;15.90;13.95;;;19.40;99.90;;;;;;5055782;28;20049;-27
2022/08/15 02:46:16;;;;;;;15.45;13.63;;;19.30;1.00;;;;;;5056835;28;20077;-27
2022/08/15 02:48:44;;;;;;;16.85;14.35;;;19.30;1.00;;;;;;5055636;28;20120;-27
2022/08/15 02:51:12;;;;;;;16.25;14.05;;;19.40;1.00;;;;;;5054800;28;20044;-27
2022/08/15 02:53:39;;;;;;;14.98;13.45;;;19.40;1.00;;;;;;5055842;28;20052;-27
2022/08/15 02:56:06;;;;;;;17.40;15.50;;;19.50;1.00;;;;;;5054838;28;20122;-26
2022/08/15 02:58:35;;;;;;;18.23;14.85;;;19.40;1.00;;;;;;5054606;28;20052;-27
2022/08/15 03:01:08;;;;;;;16.00;14.05;;;19.40;1.00;;;;;;5054259;28;20059;-27
2022/08/15 03:03:37;;;;;;;14.98;13.48;;;19.30;1.00;;;;;;5053819;28;20201;-27
2022/08/15 03:06:03;;;;;;;15.30;13.75;;;19.20;1.00;;;;;;5050710;28;20050;-27
2022/08/15 03:08:29;;;;;;;16.77;15.10;;;19.20;1.00;;;;;;5055784;28;20049;-27
2022/08/15 03:10:56;;;;;;;16.02;13.73;;;19.10;1.00;;;;;;5055298;28;20063;-28
2022/08/15 03:13:22;;;;;;;15.75;13.60;;;19.00;1.00;;;;;;5053769;28;20033;-27
2022/08/15 03:15:54;;;;;;;16.33;13.73;;;18.90;1.00;;;;;;5055067;28;20446;-26
2022/08/15 03:18:22;;;;;;;15.80;12.63;;;18.90;1.00;;;;;;5055566;28;20375;-27
2022/08/15 03:20:51;;;;;;;14.05;12.40;;;18.90;1.00;;;;;;5055108;28;20057;-27
2022/08/15 03:23:20;;;;;;;16.75;13.48;;;18.90;2.50;;;;;;5055177;28;20037;-27
2022/08/15 03:25:49;;;;;;;15.15;13.55;;;19.00;89.50;;;;;;5054805;28;20053;-27
2022/08/15 03:28:20;;;;;;;18.33;15.63;;;19.10;99.90;;;;;;5056299;28;20052;-28
2022/08/15 03:30:45;;;;;;;15.20;13.70;;;19.20;99.90;;;;;;5055830;28;20098;-28
2022/08/15 03:33:11;;;;;;;16.25;13.98;;;19.30;99.90;;;;;;5055034;28;20053;-28
2022/08/15 03:35:41;;;;;;;15.90;13.90;;;19.40;99.90;;;;;;5052926;28;20521;-27
2022/08/15 03:38:06;;;;;;;16.40;14.32;;;19.50;97.60;;;;;;5055428;28;20045;-27
2022/08/15 03:40:34;;;;;;;15.38;13.82;;;19.60;41.10;;;;;;5054953;28;20045;-27
2022/08/15 03:43:09;;;;;;;14.95;13.45;;;19.60;1.00;;;;;;5054072;28;20106;-27
2022/08/15 03:45:35;;;;;;;17.73;14.48;;;19.70;1.00;;;;;;5054831;28;20053;-27
2022/08/15 03:48:02;;;;;;;15.18;13.45;;;19.80;1.00;;;;;;5054412;28;20064;-27
2022/08/15 03:50:30;;;;;;;19.48;14.02;;;19.80;1.00;;;;;;5054561;28;20052;-27
2022/08/15 03:52:58;;;;;;;15.30;12.85;;;19.90;1.00;;;;;;5054003;28;20044;-27
2022/08/15 03:55:26;;;;;;;15.73;14.13;;;20.00;99.90;;;;;;5054192;28;20042;-27
2022/08/15 03:57:53;;;;;;;16.45;14.68;;;20.00;99.90;;;;;;5054149;28;20037;-27
2022/08/15 04:00:23;;;;;;;16.05;14.45;;;20.10;99.90;;;;;;5054859;28;20075;-28
2022/08/15 04:02:48;;;;;;;17.83;14.07;;;20.10;99.90;;;;;;5053415;28;20059;-27
2022/08/15 04:05:14;;;;;;;16.25;14.63;;;20.10;99.90;;;;;;5053246;28;20574;-27
2022/08/15 04:07:41;;;;;;;17.20;14.30;;;20.10;99.90;;;;;;5053383;28;20448;-27
2022/08/15 04:10:15;;;;;;;16.13;14.52;;;20.10;99.90;;;;;;5055270;28;20048;-27
2022/08/15 04:12:42;;;;;;;16.60;14.80;;;20.00;99.90;;;;;;5053819;28;20059;-27
2022/08/15 04:15:12;;;;;;;18.65;15.50;;;20.00;99.90;;;;;;5055100;28;20049;-27
2022/08/15 04:17:37;;;;;;;16.65;15.05;;;19.90;99.90;;;;;;5053015;28;20044;-27
2022/08/15 04:20:05;;;;;;;19.92;14.20;;;19.80;99.90;;;;;;5052573;28;20049;-27
2022/08/15 04:22:35;;;;;;;16.15;14.38;;;19.70;99.90;;;;;;5068975;28;20133;-27
2022/08/15 04:25:18;;;;;;;15.65;14.05;;;19.70;99.90;;;;;;5054236;28;20041;-27
2022/08/15 04:27:46;;;;;;;16.17;14.43;;;19.70;99.90;;;;;;5053929;28;20458;-27
2022/08/15 04:30:12;;;;;;;20.38;16.13;;;19.60;99.90;;;;;;5036285;28;20129;-27
2022/08/15 04:32:39;;;;;;;17.58;15.77;;;19.60;1.00;;;;;;5053066;28;20080;-27
2022/08/15 04:35:08;;;;;;;18.67;16.70;;;19.50;99.90;;;;;;5052663;28;20514;-27
2022/08/15 04:37:37;;;;;;;18.42;16.52;;;19.30;1.00;;;;;;5053147;28;20036;-27
2022/08/15 04:40:04;;;;;;;21.60;18.40;;;19.20;1.00;;;;;;5052381;28;20056;-27
2022/08/15 04:42:30;;;;;;;21.30;19.08;;;19.10;1.00;;;;;;5052922;28;20045;-27
2022/08/15 04:44:56;;;;;;;20.75;18.02;;;18.90;1.00;;;;;;5053428;28;20501;-27
2022/08/15 04:47:22;;;;;;;25.20;19.38;;;18.80;1.00;;;;;;5053398;28;20129;-27
2022/08/15 04:49:47;;;;;;;31.80;17.65;;;18.70;48.60;;;;;;5046478;28;20056;-26
2022/08/15 04:52:19;;;;;;;20.88;18.70;;;18.70;98.60;;;;;;5035415;28;20075;-27
2022/08/15 04:54:46;;;;;;;20.15;17.63;;;18.60;99.90;;;;;;5052870;28;20392;-27
2022/08/15 04:57:13;;;;;;;18.55;16.60;;;18.70;99.90;;;;;;5053375;28;20055;-27
2022/08/15 04:59:39;;;;;;;18.70;16.90;;;18.80;99.90;;;;;;5051168;28;20040;-27
2022/08/15 05:02:08;;;;;;;18.83;15.52;;;18.90;99.90;;;;;;5053154;28;20044;-27
2022/08/15 05:04:34;;;;;;;16.70;14.23;;;19.00;99.90;;;;;;5053709;28;20048;-27
2022/08/15 05:07:00;;;;;;;16.52;14.85;;;19.10;99.90;;;;;;5053843;28;20491;-27
2022/08/15 05:09:26;;;;;;;17.45;13.88;;;19.20;99.90;;;;;;5052063;28;20048;-27
2022/08/15 05:11:51;;;;;;;18.85;15.30;;;19.40;99.90;;;;;;5053020;28;20082;-27
2022/08/15 05:14:18;;;;;;;25.42;16.17;;;19.50;99.90;;;;;;5047513;28;20505;-27
2022/08/15 05:16:44;;;;;;;18.90;15.10;;;19.60;99.90;;;;;;5050011;28;20132;-27
2022/08/15 05:19:09;;;;;;;25.20;16.40;;;19.70;99.90;;;;;;5051896;28;20526;-28
2022/08/15 05:21:38;;;;;;;20.33;15.82;;;19.90;99.90;;;;;;5053268;28;20064;-27
2022/08/15 05:24:03;;;;;;;24.50;16.08;;;20.00;21.30;;;;;;5048480;28;20038;-27
2022/08/15 05:26:30;;;;;;;25.67;17.90;;;20.10;1.00;;;;;;5034841;28;20060;-27
2022/08/15 05:28:56;;;;;;;26.55;16.83;;;20.20;1.00;;;;;;5053777;28;20076;-28
2022/08/15 05:31:22;;;;;;;24.50;16.05;;;20.30;1.00;;;;;;5054058;28;20097;-27
2022/08/15 05:33:48;;;;;;;18.17;16.05;;;20.40;99.90;;;;;;5052528;28;20554;-27
2022/08/15 05:36:14;;;;;;;21.45;15.93;;;20.50;99.90;;;;;;5050788;28;20044;-27
2022/08/15 05:38:55;;;;;;;19.35;15.32;;;20.70;99.90;;;;;;5051518;28;20043;-27
2022/08/15 05:41:39;;;;;;;17.27;14.63;;;20.80;99.90;;;;;;5052044;28;20483;-27
2022/08/15 05:44:15;;;;;;;20.67;16.50;;;20.90;99.90;;;;;;5046744;28;20041;-27
2022/08/15 05:47:19;;;;;;;24.10;15.35;;;21.00;99.90;;;;;;5051811;28;20056;-27
2022/08/15 05:50:22;;;;;;;20.50;16.48;;;21.10;99.90;;;;;;5051775;28;20048;-28
2022/08/15 05:52:48;;;;;;;20.30;15.57;;;21.30;99.90;;;;;;5034518;28;20085;-27
2022/08/15 05:55:32;;;;;;;18.80;15.75;;;21.30;99.30;;;;;;5050195;28;20447;-28
2022/08/15 05:58:19;;;;;;;23.50;15.45;;;21.50;29.50;;;;;;5053415;28;20127;-27
2022/08/15 06:00:55;;;;;;;24.02;16.20;;;21.60;2.50;;;;;;5049513;28;20132;-28
2022/08/15 06:03:26;;;;;;;23.58;15.07;;;21.70;1.00;;;;;;5052675;28;20055;-29
2022/08/15 06:05:56;;;;;;;16.17;14.40;;;21.90;1.00;;;;;;5051784;28;20052;-27
2022/08/15 06:08:26;;;;;;;24.40;15.80;;;22.00;1.00;;;;;;5052689;28;20045;-28
2022/08/15 06:11:04;;;;;;;20.27;14.98;;;22.20;1.00;;;;;;5052344;28;20098;-27
2022/08/15 06:13:40;;;;;;;20.60;14.85;;;22.20;1.00;;;;;;5052026;28;20063;-27
2022/08/15 06:16:23;;;;;;;17.25;15.50;;;22.30;1.00;;;;;;5047729;28;20049;-27
2022/08/15 06:18:50;;;;;;;25.73;21.92;;;22.40;1.00;;;;;;5051931;28;20057;-27
2022/08/15 06:21:35;;;;;;;27.05;17.98;;;22.50;1.00;;;;;;5053326;28;20049;-27
2022/08/15 06:24:01;;;;;;;20.10;14.95;;;22.60;1.00;;;;;;5050782;28;20437;-27
2022/08/15 06:26:53;;;;;;;30.75;16.20;;;22.70;99.90;;;;;;5048527;28;20044;-27
2022/08/15 06:29:36;;;;;;;18.83;15.15;;;22.80;99.90;;;;;;5028769;28;20104;-27
2022/08/15 06:32:09;;;;;;;18.02;15.07;;;22.90;99.90;;;;;;5047172;28;20132;-27
2022/08/15 06:35:03;;;;;;;18.55;12.77;;;23.00;99.90;;;;;;5056457;28;20057;-27
2022/08/15 06:37:34;;;;;;;23.30;14.13;;;23.10;99.90;;;;;;5052975;28;20045;-28
2022/08/15 06:40:08;;;;;;;20.52;14.07;;;23.20;99.90;;;;;;5053118;28;20041;-28
2022/08/15 06:42:37;;;;;;;16.92;12.70;;;23.30;99.90;;;;;;5052519;28;20510;-27
2022/08/15 06:45:27;;;;;;;15.25;13.65;;;23.30;99.90;;;;;;5053502;28;20044;-28
2022/08/15 06:48:16;;;;;;;18.67;14.93;;;23.40;99.90;;;;;;5034394;28;20046;-28
2022/08/15 06:51:09;;;;;;;17.02;13.65;;;23.40;94.20;;;;;;5041099;28;20128;-27
2022/08/15 06:53:44;;;;;;;15.88;13.95;;;23.40;63.40;;;;;;5050093;28;20095;-27
2022/08/15 06:56:16;;;;;;;20.67;15.48;;;23.60;80.40;;;;;;5055762;28;20053;-27
2022/08/15 06:58:47;;;;;;;24.00;14.63;;;23.60;99.90;;;;;;5054468;28;20139;-27
2022/08/15 07:01:25;;;;;;;16.00;14.27;;;23.60;99.90;;;;;;5056038;28;20140;-27
2022/08/15 07:04:05;;;;;;;16.33;14.30;;;23.70;99.90;;;;;;5057383;28;20040;-27
2022/08/15 07:07:17;;;;;;;19.35;14.93;;;23.70;85.80;;;;;;5054386;28;20448;-27
2022/08/15 07:10:00;;;;;;;19.50;13.88;;;23.80;95.90;;;;;;5040605;28;20118;-27
2022/08/15 07:12:37;;;;;;;18.60;13.23;;;23.90;91.40;;;;;;5055770;28;20591;-28
2022/08/15 07:15:25;;;;;;;15.45;12.23;;;24.00;1.00;;;;;;5056284;28;20056;-28
2022/08/15 07:17:57;;;;;;;12.93;11.52;;;24.10;1.00;;;;;;5056199;28;20087;-27
2022/08/15 07:20:22;;;;;;;14.25;12.07;;;24.30;1.00;;;;;;5056133;28;20478;-27
2022/08/15 07:22:48;;;;;;;12.45;11.23;;;24.30;1.00;;;;;;5056120;28;20088;-27
2022/08/15 07:25:18;;;;;;;12.88;11.57;;;24.40;1.00;;;;;;5056148;28;20055;-27
2022/08/15 07:28:00;;;;;;;13.20;11.80;;;24.50;1.00;;;;;;5054381;28;20140;-27
2022/08/15 07:30:44;;;;;;;14.88;11.05;;;24.60;1.00;;;;;;5054090;28;20052;-27
2022/08/15 07:33:34;;;;;;;12.07;10.82;;;24.70;99.90;;;;;;5056587;28;20124;-27
2022/08/15 07:36:25;;;;;;;12.50;10.88;;;24.80;99.90;;;;;;5055949;28;20049;-27
2022/08/15 07:38:52;;;;;;;13.43;12.05;;;24.90;99.90;;;;;;5054096;28;20045;-27
2022/08/15 07:41:30;;;;;;;17.95;13.48;;;24.90;99.90;;;;;;5054732;28;20048;-27
2022/08/15 07:43:59;;;;;;;12.27;11.07;;;24.90;99.90;;;;;;5054151;28;20051;-27
2022/08/15 07:46:37;;;;;;;15.30;10.82;;;24.90;99.90;;;;;;5054744;28;20569;-27
2022/08/15 07:49:13;;;;;;;14.10;10.05;;;25.10;99.90;;;;;;5054947;28;20483;-27
2022/08/15 07:51:47;;;;;;;12.43;11.13;;;25.20;99.90;;;;;;5037584;28;20041;-27
2022/08/15 07:54:22;;;;;;;15.07;10.50;;;25.20;99.90;;;;;;5054917;28;20403;-28
2022/08/15 07:56:58;;;;;;;12.43;11.23;;;25.30;99.90;;;;;;5055182;28;20045;-27
2022/08/15 07:59:37;;;;;;;12.68;11.00;;;25.30;99.90;;;;;;5055456;28;20049;-27
2022/08/15 08:02:12;;;;;;;14.30;10.70;;;25.30;99.90;;;;;;5056018;28;20048;-27
2022/08/15 08:04:38;;;;;;;15.13;12.82;;;25.50;99.90;;;;;;5054314;28;20045;-27
2022/08/15 08:07:31;;;;;;;15.32;13.63;;;25.60;99.90;;;;;;5054236;28;20066;-28
2022/08/15 08:10:14;;;;;;;18.45;12.68;;;25.90;99.90;;;;;;5053842;28;20045;-28
2022/08/15 08:13:03;;;;;;;30.35;14.63;;;26.10;99.90;;;;;;5054853;28;20550;-30
2022/08/15 08:15:32;;;;;;;13.38;11.93;;;26.10;99.90;;;;;;5027283;28;20045;-28
2022/08/15 08:18:03;;;;;;;15.13;10.52;;;26.10;76.20;;;;;;5054031;28;20049;-28
2022/08/15 08:20:41;;;;;;;13.45;10.63;;;26.10;43.70;;;;;;5055751;28;20522;-27
2022/08/15 08:23:25;;;;;;;13.35;10.55;;;26.30;1.00;;;;;;5054995;28;20048;-28
2022/08/15 08:26:09;;;;;;;11.90;9.52;;;26.40;1.00;;;;;;5054183;28;20380;-28
2022/08/15 08:28:52;;;;;;;14.48;10.07;;;26.50;1.00;;;;;;5053906;28;20037;-28
2022/08/15 08:31:37;;;;;;;11.55;10.15;;;26.50;1.00;;;;;;5054891;28;20537;-28
2022/08/15 08:34:22;;;;;;;11.10;9.93;;;26.50;1.00;;;;;;5054843;28;20437;-28
2022/08/15 08:37:07;;;;;;;18.15;9.43;;;26.60;99.90;;;;;;5052757;28;20554;-28
2022/08/15 08:39:44;;;;;;;13.52;8.88;;;26.70;99.90;;;;;;5054633;28;20041;-28
2022/08/15 08:42:39;;;;;;;11.80;8.88;;;26.90;99.90;;;;;;5055181;28;20049;-28
2022/08/15 08:45:36;;;;;;;15.60;8.73;;;26.90;99.90;;;;;;5054631;28;20055;-30
2022/08/15 08:48:25;;;;;;;9.27;8.23;;;27.00;99.90;;;;;;5041598;28;20168;-28
2022/08/15 08:51:04;;;;;;;12.27;8.93;;;27.00;99.90;;;;;;5053522;28;20080;-28
2022/08/15 08:54:01;;;;;;;10.25;8.45;;;27.00;99.90;;;;;;5055276;28;20171;-28
2022/08/15 08:56:36;;;;;;;15.02;9.75;;;27.00;99.90;;;;;;5052581;28;20040;-28
2022/08/15 08:59:10;;;;;;;10.50;8.52;;;27.10;99.90;;;;;;5051859;28;20044;-28
2022/08/15 09:01:38;;;;;;;14.40;8.75;;;27.10;99.90;;;;;;5062397;28;20045;-28
2022/08/15 09:04:10;;;;;;;9.30;8.30;;;27.20;99.90;;;;;;5053960;28;20570;-27
2022/08/15 09:06:39;;;;;;;9.65;8.00;;;27.30;99.90;;;;;;5055059;28;20044;-28
2022/08/15 09:09:21;;;;;;;9.02;8.15;;;27.40;99.90;;;;;;5054003;28;20057;-27
2022/08/15 09:15:06;;;;;;;9.50;7.30;;;27.60;97.70;;;;;;5053849;28;20509;-27
2022/08/15 09:17:36;;;;;;;7.72;7.00;;;28.10;1.00;;;;;;5053725;28;20045;-28
2022/08/15 09:20:07;;;;;;;8.77;7.15;;;28.80;1.00;;;;;;5052495;28;20131;-27
2022/08/15 09:22:33;;;;;;;7.23;6.53;;;29.50;99.90;;;;;;5053381;28;20049;-27
2022/08/15 09:24:59;;;;;;;7.25;6.53;;;30.30;99.90;;;;;;5052968;28;20061;-28
2022/08/15 09:27:30;;;;;;;13.88;6.97;;;30.90;88.20;;;;;;5046979;28;20628;-27
2022/08/15 09:30:04;;;;;;;7.65;6.90;;;31.30;1.00;;;;;;5047872;28;20090;-28
2022/08/15 09:33:07;;;;;;;8.80;6.60;;;31.70;21.90;;;;;;5045546;28;20041;-28
2022/08/15 09:36:00;;;;;;;9.27;6.28;;;31.40;53.20;;;;;;5048710;28;20038;-28
2022/08/15 09:39:01;;;;;;;8.95;7.25;;;31.70;59.40;;;;;;5045605;28;20123;-29
2022/08/15 09:41:45;;;;;;;7.57;6.35;;;32.00;22.60;;;;;;5042072;28;20048;-28
2022/08/15 09:44:29;;;;;;;6.85;6.25;;;32.00;99.90;;;;;;5045639;28;20045;-28
2022/08/15 09:47:08;;;;;;;6.57;5.97;;;32.30;99.90;;;;;;5046619;28;20053;-28
2022/08/15 09:50:00;;;;;;;9.38;5.82;;;32.30;99.90;;;;;;5046963;28;20048;-28
2022/08/15 09:52:42;;;;;;;6.38;5.78;;;32.50;99.90;;;;;;5047267;28;20501;-29
2022/08/15 09:55:26;;;;;;;6.63;5.80;;;32.40;99.90;;;;;;5035440;28;20491;-29
2022/08/15 09:57:55;;;;;;;7.30;6.63;;;32.20;99.90;;;;;;5041387;28;20052;-28
2022/08/15 10:00:52;;;;;;;8.63;6.53;;;32.40;99.90;;;;;;5047586;28;20058;-29
2022/08/15 10:03:24;;;;;;;11.02;6.22;;;32.90;99.90;;;;;;5043095;28;20040;-29
2022/08/15 10:06:06;;;;;;;6.60;6.00;;;33.20;99.90;;;;;;5049102;28;20094;-31
2022/08/15 10:08:56;;;;;;;10.88;6.28;;;32.90;99.90;;;;;;5048950;28;20029;-28
2022/08/15 10:11:48;;;;;;;8.93;6.70;;;32.30;99.90;;;;;;5046314;28;20053;-28
2022/08/15 10:14:25;;;;;;;8.55;6.53;;;31.90;99.90;;;;;;5010637;28;20094;-28
2022/08/15 10:16:54;;;;;;;10.90;6.72;;;31.40;99.90;;;;;;5063289;28;20410;-28
2022/08/15 10:19:38;;;;;;;7.50;6.47;;;31.10;99.90;;;;;;5041093;28;20053;-28
2022/08/15 10:22:43;;;;;;;11.25;6.20;;;30.90;99.90;;;;;;5050591;28;20517;-28
2022/08/15 10:25:24;;;;;;;7.90;7.10;;;30.70;99.90;;;;;;5031216;28;20499;-29
2022/08/15 10:28:05;;;;;;;7.25;6.57;;;30.60;99.90;;;;;;5053343;28;20052;-30
2022/08/15 10:30:46;;;;;;;12.23;7.18;;;30.60;99.90;;;;;;5050753;28;20453;-29
2022/08/15 10:33:33;;;;;;;8.18;6.65;;;30.60;99.90;;;;;;5055894;28;20525;-28
2022/08/15 10:36:14;;;;;;;7.68;6.80;;;30.80;99.90;;;;;;5055178;28;20037;-29
2022/08/15 10:38:46;;;;;;;7.47;6.43;;;31.00;99.90;;;;;;5053780;28;20048;-28
2022/08/15 10:41:37;;;;;;;7.70;6.53;;;31.10;99.90;;;;;;5051926;28;20056;-28
2022/08/15 10:44:20;;;;;;;8.32;6.80;;;31.00;99.90;;;;;;5049709;28;20052;-28
2022/08/15 10:47:15;;;;;;;7.72;6.57;;;31.10;99.90;;;;;;5046585;28;20044;-28
2022/08/15 10:50:02;;;;;;;10.70;7.65;;;31.60;99.90;;;;;;5043823;28;20052;-28
2022/08/15 10:52:44;;;;;;;9.70;7.60;;;32.10;99.90;;;;;;5056350;28;20397;-28
2022/08/15 10:55:32;;;;;;;7.43;6.63;;;31.50;99.90;;;;;;5056573;28;20052;-28
2022/08/15 10:58:03;;;;;;;12.10;7.90;;;31.20;99.90;;;;;;5056443;28;20095;-28
2022/08/15 11:00:47;;;;;;;7.75;7.05;;;31.00;99.90;;;;;;5054940;28;20131;-28
2022/08/15 11:03:34;;;;;;;11.02;8.23;;;30.60;99.90;;;;;;5056512;28;20052;-28
2022/08/15 11:06:07;;;;;;;9.30;7.93;;;29.90;99.90;;;;;;5056049;28;20049;-28
2022/08/15 11:08:35;;;;;;;10.38;8.48;;;29.40;99.90;;;;;;5056491;28;20036;-28
2022/08/15 11:11:07;;;;;;;9.38;8.45;;;29.10;99.90;;;;;;5056404;28;20106;-29
2022/08/15 11:13:35;;;;;;;11.23;10.02;;;29.20;99.90;;;;;;5055459;28;20407;-28
2022/08/15 11:16:14;;;;;;;10.38;8.85;;;29.30;99.90;;;;;;5056305;28;20041;-29
2022/08/15 11:18:55;;;;;;;12.98;9.77;;;29.70;99.90;;;;;;5056324;28;20107;-28
2022/08/15 11:21:43;;;;;;;11.40;9.85;;;30.00;99.90;;;;;;5056139;28;20059;-28
2022/08/15 11:24:09;;;;;;;12.18;10.43;;;29.70;99.90;;;;;;5056146;28;20553;-28
2022/08/15 11:26:43;;;;;;;12.00;9.90;;;29.40;99.90;;;;;;5053244;28;20087;-28
2022/08/15 11:29:23;;;;;;;11.82;9.88;;;29.00;99.90;;;;;;5055999;28;20048;-28
2022/08/15 11:31:53;;;;;;;13.20;10.73;;;28.80;99.90;;;;;;5056010;28;20049;-28
2022/08/15 11:34:25;;;;;;;12.82;10.55;;;28.50;99.90;;;;;;5055876;28;20051;-28
2022/08/15 11:36:54;;;;;;;11.55;10.35;;;28.40;99.90;;;;;;5055026;28;20049;-28
2022/08/15 11:39:20;;;;;;;13.45;10.55;;;28.10;99.90;;;;;;5052147;28;20107;-28
2022/08/15 11:41:56;;;;;;;14.50;10.38;;;27.80;99.90;;;;;;5054895;28;20056;-28
2022/08/15 11:44:28;;;;;;;11.23;10.02;;;27.40;99.90;;;;;;5051281;28;20045;-28
2022/08/15 11:46:54;;;;;;;12.27;10.15;;;27.10;1.00;;;;;;5070163;28;20047;-28
2022/08/15 11:49:30;;;;;;;14.15;10.75;;;26.80;1.00;;;;;;5062075;28;20056;-28
2022/08/15 11:52:05;;;;;;;12.90;10.27;;;26.60;9.80;;;;;;5054009;28;20510;-28
2022/08/15 11:54:31;;;;;;;16.65;11.15;;;26.50;98.10;;;;;;5052282;28;20072;-28
2022/08/15 11:57:03;;;;;;;14.55;11.75;;;26.20;99.90;;;;;;5055574;28;20070;-27
2022/08/15 11:59:33;;;;;;;14.25;12.95;;;25.90;1.00;;;;;;5055390;28;20049;-27
2022/08/15 12:02:28;;;;;;;13.93;11.65;;;25.70;29.50;;;;;;5035581;28;20058;-27
2022/08/15 12:04:55;;;;;;;13.45;11.55;;;25.50;99.90;;;;;;5034507;28;20046;-27
2022/08/15 12:07:27;;;;;;;15.95;12.93;;;25.30;99.90;;;;;;5035976;28;20056;-27
2022/08/15 12:09:59;;;;;;;12.48;11.20;;;25.30;99.90;;;;;;5035478;28;20041;-28
2022/08/15 12:12:37;;;;;;;14.23;12.00;;;25.10;99.90;;;;;;5045643;28;20053;-27
2022/08/15 12:15:37;;;;;;;13.52;10.73;;;25.00;99.90;;;;;;5055172;28;20048;-27
2022/08/15 12:18:05;;;;;;;15.43;12.35;;;24.90;99.90;;;;;;5041879;28;20395;-27
2022/08/15 12:20:46;;;;;;;13.73;11.40;;;24.90;99.90;;;;;;5048603;28;20529;-27
2022/08/15 12:23:36;;;;;;;16.08;14.45;;;24.90;99.90;;;;;;5034498;28;20053;-27
2022/08/15 12:26:10;;;;;;;16.23;11.60;;;25.00;99.90;;;;;;5046041;28;20403;-29
2022/08/15 12:28:38;;;;;;;14.82;13.07;;;25.00;1.00;;;;;;5053906;28;20045;-28
2022/08/15 12:31:28;;;;;;;11.23;10.13;;;25.00;1.00;;;;;;5054899;28;20111;-28
2022/08/15 12:34:13;;;;;;;14.85;11.05;;;25.00;1.00;;;;;;5054837;28;20045;-28
2022/08/15 12:36:42;;;;;;;13.48;12.07;;;24.80;1.00;;;;;;5055089;28;20072;-28
2022/08/15 12:39:09;;;;;;;14.77;13.27;;;24.70;1.00;;;;;;5054564;28;20049;-27
2022/08/15 12:41:36;;;;;;;12.02;10.80;;;24.70;32.00;;;;;;5054649;28;20052;-28
2022/08/15 12:44:06;;;;;;;14.85;13.25;;;24.60;99.90;;;;;;5053993;28;20044;-28
2022/08/15 12:46:33;;;;;;;19.42;13.95;;;24.60;57.10;;;;;;5052999;28;20044;-28
2022/08/15 12:48:59;;;;;;;18.00;13.77;;;24.60;93.40;;;;;;5054271;28;20449;-27
2022/08/15 12:51:26;;;;;;;15.43;13.43;;;24.70;99.90;;;;;;5053566;28;20061;-27
2022/08/15 12:53:53;;;;;;;15.20;13.70;;;24.70;99.90;;;;;;5053869;28;20479;-28
2022/08/15 12:56:19;;;;;;;18.30;14.38;;;24.70;99.90;;;;;;5054014;28;20379;-29
2022/08/15 12:58:45;;;;;;;15.05;13.65;;;24.90;99.90;;;;;;5052829;28;20049;-28
2022/08/15 13:01:11;;;;;;;15.27;13.85;;;25.10;99.90;;;;;;5052388;28;20083;-28
2022/08/15 13:03:42;;;;;;;16.13;13.48;;;25.40;99.90;;;;;;5053958;28;20041;-28
2022/08/15 13:06:33;;;;;;;15.38;13.98;;;25.80;99.90;;;;;;5054302;28;20041;-28
2022/08/15 13:08:59;;;;;;;12.05;10.75;;;26.20;60.70;;;;;;5044637;28;20045;-28
2022/08/15 13:11:25;;;;;;;14.27;12.88;;;26.60;1.00;;;;;;5054031;28;20067;-28